Time;durP1;ratioP1;P1;durP2;ratioP2;P2;SDS_P1;SDS_P2;PMS_P1;PMS_P2;Temp;Humidity;BMP_temperature;BMP_pressure;BME280_temperature;BME280_humidity;BME280_pressure;Samples;Min_cycle;Max_cycle;Signal;HPM_P1;HPM_P2
2021/12/02 00:01:02;;;;;;;6.15;0.80;;;;;;;-142.75;100.00;76790.78;4987363;28;20027;-65
2021/12/02 00:03:27;;;;;;;7.53;1.00;;;;;;;-142.75;100.00;76780.94;4987942;28;20026;-66
2021/12/02 00:05:52;;;;;;;9.95;1.10;;;;;;;-142.75;100.00;76796.69;4987999;28;20029;-66
2021/12/02 00:08:18;;;;;;;10.23;1.42;;;;;;;-142.75;100.00;76792.75;4986793;28;20491;-66
2021/12/02 00:10:43;;;;;;;4.82;1.00;;;;;;;-142.75;100.00;76790.78;4987314;28;20090;-65
2021/12/02 00:13:10;;;;;;;5.85;1.85;;;;;;;-142.75;100.00;76786.84;4987966;28;20062;-66
2021/12/02 00:15:40;;;;;;;5.83;1.10;;;;;;;-142.75;100.00;76798.66;4987746;28;20057;-66
2021/12/02 00:18:31;;;;;;;7.50;1.10;;;;;;;-142.75;100.00;76806.50;4987932;28;20030;-66
2021/12/02 00:21:09;;;;;;;7.73;1.00;;;;;;;-142.75;100.00;76804.53;4986478;28;20037;-66
2021/12/02 00:24:03;;;;;;;3.87;0.87;;;;;;;-142.75;100.00;76814.38;4987726;28;20113;-66
2021/12/02 00:26:29;;;;;;;8.50;1.10;;;;;;;-142.75;100.00;76820.28;4987600;28;20049;-65
2021/12/02 00:28:58;;;;;;;10.27;0.87;;;;;;;-142.75;100.00;76818.31;4986348;28;20087;-65
2021/12/02 00:31:28;;;;;;;8.70;1.10;;;;;;;-142.75;100.00;76820.28;4986839;28;20422;-66
2021/12/02 00:33:57;;;;;;;5.83;0.90;;;;;;;-142.75;100.00;76818.31;4987471;28;20109;-65
2021/12/02 00:36:25;;;;;;;7.47;0.80;;;;;;;-142.75;100.00;76814.38;4987516;28;20026;-65
2021/12/02 00:38:51;;;;;;;8.83;0.90;;;;;;;-142.75;100.00;76818.31;4987693;28;20026;-65
2021/12/02 00:41:20;;;;;;;7.10;1.23;;;;;;;-142.75;100.00;76818.31;4987058;28;20022;-65
2021/12/02 00:43:47;;;;;;;5.13;0.77;;;;;;;-142.75;100.00;76814.38;4987438;28;20053;-65
2021/12/02 00:46:16;;;;;;;10.07;1.30;;;;;;;-142.75;100.00;76836.03;4987449;28;20030;-65
2021/12/02 00:48:42;;;;;;;9.43;0.57;;;;;;;-142.75;100.00;76826.19;4987373;28;20419;-66
2021/12/02 00:51:08;;;;;;;;;;;;;;;-142.75;100.00;76814.38;4986932;28;20050;-65
2021/12/02 00:53:36;;;;;;;6.87;0.70;;;;;;;-142.75;100.00;76828.16;4987387;28;19944;-65
2021/12/02 00:56:05;;;;;;;6.20;1.03;;;;;;;-142.75;100.00;76812.41;4987275;28;20026;-65
2021/12/02 00:58:32;;;;;;;5.33;0.73;;;;;;;-142.75;100.00;76822.25;4986963;28;20068;-66
2021/12/02 01:00:58;;;;;;;8.83;0.80;;;;;;;-142.75;100.00;76828.16;4986579;28;20071;-65
2021/12/02 01:03:25;;;;;;;;;;;;;;;-142.75;100.00;76838.00;4987580;28;20031;-65
2021/12/02 01:05:50;;;;;;;3.85;0.85;;;;;;;-142.75;100.00;76838.00;4987551;28;20008;-65
2021/12/02 01:08:16;;;;;;;6.93;0.93;;;;;;;-142.75;100.00;76836.03;5011724;23;20478;-70
2021/12/02 01:10:42;;;;;;;9.25;0.98;;;;;;;-142.75;100.00;76836.03;4996128;28;20026;-69
2021/12/02 01:13:07;;;;;;;5.68;1.35;;;;;;;-142.75;100.00;76845.88;4988575;28;20031;-69
2021/12/02 01:15:32;;;;;;;17.08;3.50;;;;;;;-142.75;100.00;76838.00;5001534;28;20437;-69
2021/12/02 01:17:58;;;;;;;11.02;1.20;;;;;;;-142.75;100.00;76830.13;5006595;28;20037;-69
2021/12/02 01:20:23;;;;;;;6.97;0.87;;;;;;;-142.75;100.00;76843.91;5000035;28;20034;-68
2021/12/02 01:22:49;;;;;;;3.58;0.70;;;;;;;-142.75;100.00;76861.63;4996644;28;20127;-69
2021/12/02 01:25:16;;;;;;;;;;;;;;;-142.75;100.00;76847.84;4996282;28;20029;-70
2021/12/02 01:27:46;;;;;;;5.75;1.08;;;;;;;-142.75;100.00;76836.03;5005231;28;19997;-70
2021/12/02 01:30:11;;;;;;;11.27;1.10;;;;;;;-142.75;100.00;76847.84;5005791;28;21079;-69
2021/12/02 01:32:38;;;;;;;13.40;2.10;;;;;;;-142.75;100.00;76853.75;4996616;28;20018;-70
2021/12/02 01:35:05;;;;;;;11.07;0.87;;;;;;;-142.75;100.00;76836.03;4994205;28;20021;-71
2021/12/02 01:37:30;;;;;;;10.10;0.87;;;;;;;-142.75;100.00;76838.00;5007884;28;20449;-70
2021/12/02 01:39:57;;;;;;;7.18;1.10;;;;;;;-142.75;100.00;76826.19;4989578;28;20030;-70
2021/12/02 01:42:24;;;;;;;13.00;1.60;;;;;;;-142.75;100.00;76847.84;4990109;28;20069;-69
2021/12/02 01:44:53;;;;;;;6.67;0.90;;;;;;;-142.75;100.00;76863.59;4990469;28;20078;-69
2021/12/02 01:47:23;;;;;;;6.80;1.00;;;;;;;-142.75;100.00;76857.69;4989169;28;20018;-69
2021/12/02 01:49:52;;;;;;;9.47;0.90;;;;;;;-142.75;100.00;76859.66;4989640;28;20049;-70
2021/12/02 01:52:24;;;;;;;9.47;1.70;;;;;;;-142.75;100.00;76863.59;4989353;28;20022;-70
2021/12/02 01:54:51;;;;;;;8.40;1.07;;;;;;;-142.75;100.00;76861.63;5003277;28;20437;-69
2021/12/02 01:57:29;;;;;;;14.07;2.90;;;;;;;-142.75;100.00;76863.59;5009624;28;20507;-70
2021/12/02 02:00:05;;;;;;;3.83;0.73;;;;;;;-142.75;100.00;76857.69;5006484;28;20072;-70
2021/12/02 02:02:34;;;;;;;8.85;0.82;;;;;;;-142.75;100.00;76873.44;4989873;28;20026;-70
2021/12/02 02:05:01;;;;;;;8.70;0.80;;;;;;;-142.75;100.00;76863.59;4993926;28;20030;-71
2021/12/02 02:07:28;;;;;;;8.20;1.10;;;;;;;-142.75;100.00;76853.75;4992983;28;20522;-69
2021/12/02 02:09:53;;;;;;;9.37;1.13;;;;;;;-142.75;100.00;76853.75;5004478;28;20067;-69
2021/12/02 02:12:21;;;;;;;5.50;1.00;;;;;;;-142.75;100.00;76861.63;4998780;28;20412;-71
2021/12/02 02:14:49;;;;;;;5.07;0.90;;;;;;;-142.75;100.00;76861.63;5009270;28;20269;-70
2021/12/02 02:17:23;;;;;;;4.90;1.10;;;;;;;-142.75;100.00;76861.63;5009216;28;20026;-70
2021/12/02 02:19:48;;;;;;;9.13;0.80;;;;;;;-142.75;100.00;76871.47;5007550;28;20022;-70
2021/12/02 02:22:19;;;;;;;5.85;0.95;;;;;;;-142.75;100.00;76861.63;4999037;28;20392;-70
2021/12/02 02:24:44;;;;;;;8.87;1.30;;;;;;;-142.75;100.00;76865.56;5002812;28;20030;-69
2021/12/02 02:27:09;;;;;;;7.38;1.17;;;;;;;-142.75;100.00;76855.72;5003868;28;20040;-70
2021/12/02 02:29:35;;;;;;;6.80;0.88;;;;;;;-142.75;100.00;76869.50;4989378;28;20022;-70
2021/12/02 02:32:00;;;;;;;8.83;1.07;;;;;;;-142.75;100.00;76871.47;4988867;28;20023;-69
2021/12/02 02:34:25;;;;;;;7.03;1.15;;;;;;;-142.75;100.00;76863.59;5003457;28;20272;-69
2021/12/02 02:36:54;;;;;;;8.00;0.80;;;;;;;-142.75;100.00;76855.72;4994738;28;20498;-70
2021/12/02 02:39:19;;;;;;;12.57;1.13;;;;;;;-142.75;100.00;76869.50;5007748;28;20131;-68
2021/12/02 02:41:46;;;;;;;5.45;0.50;;;;;;;-142.75;100.00;76869.50;5007566;28;20030;-71
2021/12/02 02:44:11;;;;;;;4.33;1.00;;;;;;;-142.75;100.00;76871.47;4997420;28;20031;-69
2021/12/02 02:46:39;;;;;;;3.53;0.55;;;;;;;-142.75;100.00;76877.38;4991886;28;20445;-70
2021/12/02 02:49:08;;;;;;;4.73;0.70;;;;;;;-142.75;100.00;76879.34;5008646;28;20022;-70
2021/12/02 02:51:34;;;;;;;2.77;0.50;;;;;;;-142.75;100.00;76889.19;5006518;28;20047;-69
2021/12/02 02:54:07;;;;;;;;;;;;;;;-142.75;100.00;76897.06;5000175;28;20091;-69
2021/12/02 02:56:38;;;;;;;3.13;0.60;;;;;;;-142.75;100.00;76901.00;5006832;28;19913;-70
2021/12/02 02:59:26;;;;;;;7.97;0.67;;;;;;;-142.75;100.00;76908.88;5007394;28;20087;-70
2021/12/02 03:12:25;;;;;;;3.00;0.50;;;;;;;-142.75;100.00;76904.94;5008401;28;20034;-69
2021/12/02 03:17:37;;;;;;;4.85;0.50;;;;;;;-142.75;100.00;76906.91;4975961;28;20431;-70
2021/12/02 03:20:04;;;;;;;2.60;0.60;;;;;;;-142.75;100.00;76918.72;5000221;28;20026;-69
2021/12/02 03:22:29;;;;;;;3.73;0.83;;;;;;;-142.75;100.00;76922.66;5008369;28;20478;-70
2021/12/02 03:24:55;;;;;;;6.80;0.68;;;;;;;-142.75;100.00;76916.75;5008208;28;20095;-69
2021/12/02 03:27:20;;;;;;;4.72;0.60;;;;;;;-142.75;100.00;76910.84;5008330;28;20032;-69
2021/12/02 03:29:46;;;;;;;6.50;0.47;;;;;;;-142.75;100.00;76920.69;5007406;28;20032;-69
2021/12/02 03:32:11;;;;;;;4.03;0.75;;;;;;;-142.75;100.00;76928.56;5001324;28;20032;-69
2021/12/02 03:34:38;;;;;;;3.28;0.70;;;;;;;-142.75;100.00;76942.34;5000520;28;20037;-69
2021/12/02 03:37:04;;;;;;;2.77;0.57;;;;;;;-142.75;100.00;76971.88;5007954;28;20028;-69
2021/12/02 03:39:29;;;;;;;5.93;0.73;;;;;;;-142.75;100.00;76964.00;5007917;28;20026;-69
2021/12/02 03:41:55;;;;;;;0.80;0.35;;;;;;;-142.75;100.00;76983.69;5007227;28;20104;-70
2021/12/02 03:44:21;;;;;;;;;;;;;;;-142.75;100.00;76958.09;5000566;28;20491;-69
2021/12/02 03:46:47;;;;;;;1.37;0.33;;;;;;;-142.75;100.00;76965.97;4990092;28;20011;-69
2021/12/02 03:49:12;;;;;;;1.83;0.70;;;;;;;-142.75;100.00;76969.91;4987052;28;20027;-69
2021/12/02 03:51:38;;;;;;;2.47;0.50;;;;;;;-142.75;100.00;76965.97;4987727;28;20083;-69
2021/12/02 03:54:03;;;;;;;4.75;0.52;;;;;;;-142.75;100.00;76999.44;4987052;28;20775;-70
2021/12/02 03:56:29;;;;;;;3.30;0.60;;;;;;;-142.75;100.00;76993.53;4993482;28;20483;-69
2021/12/02 03:58:54;;;;;;;2.53;0.50;;;;;;;-142.75;100.00;77011.25;5006263;28;20033;-70
2021/12/02 04:01:21;;;;;;;5.57;0.85;;;;;;;-142.75;100.00;76999.44;5006133;28;20289;-69
2021/12/02 04:03:47;;;;;;;1.33;0.33;;;;;;;-142.75;100.00;77015.19;4999063;28;20026;-68
2021/12/02 04:06:14;;;;;;;8.93;0.70;;;;;;;-142.75;100.00;76999.44;5004463;28;20029;-70
2021/12/02 04:13:52;;;;;;;7.10;0.87;;;;;;;-142.75;100.00;77017.16;4988329;28;20035;-70
2021/12/02 04:16:20;;;;;;;6.32;0.90;;;;;;;-142.75;100.00;77021.09;4993154;28;20029;-69
2021/12/02 04:18:45;;;;;;;7.00;0.53;;;;;;;-142.75;100.00;77017.16;4999315;28;20026;-69
2021/12/02 04:21:11;;;;;;;6.47;0.80;;;;;;;-142.75;100.00;77007.31;5006761;28;20026;-69
2021/12/02 04:23:36;;;;;;;5.47;0.82;;;;;;;-142.75;100.00;77015.19;4992490;28;20490;-70
2021/12/02 04:26:02;;;;;;;2.90;0.98;;;;;;;-142.75;100.00;76999.44;5007302;28;20030;-70
2021/12/02 04:28:27;;;;;;;5.38;0.70;;;;;;;-142.75;100.00;76995.50;5007164;28;20026;-70
2021/12/02 04:30:52;;;;;;;6.97;0.80;;;;;;;-142.75;100.00;77003.38;5006486;28;20057;-69
2021/12/02 04:33:18;;;;;;;2.97;0.77;;;;;;;-142.75;100.00;76993.53;5007522;28;20101;-69
2021/12/02 04:35:43;;;;;;;6.18;0.80;;;;;;;-142.75;100.00;77003.38;5005934;28;20022;-70
2021/12/02 04:38:08;;;;;;;1.67;0.98;;;;;;;-142.75;100.00;77034.88;5007031;28;20140;-70
2021/12/02 04:40:36;;;;;;;3.92;0.55;;;;;;;-142.75;100.00;77050.63;4999195;28;20029;-70
2021/12/02 04:43:02;;;;;;;3.43;0.40;;;;;;;-142.75;100.00;77056.53;4987486;28;20028;-70
2021/12/02 04:45:27;;;;;;;1.10;0.30;;;;;;;-142.75;100.00;77054.56;4987473;28;20031;-69
2021/12/02 04:47:53;;;;;;;3.20;0.47;;;;;;;-142.75;100.00;77050.63;4987393;28;20030;-67
2021/12/02 04:50:18;;;;;;;1.45;0.40;;;;;;;-142.75;100.00;77066.38;4994128;28;20351;-70
2021/12/02 04:52:43;;;;;;;5.07;0.50;;;;;;;-142.75;100.00;77082.13;5003397;28;20036;-69
2021/12/02 04:55:09;;;;;;;1.50;0.40;;;;;;;-142.75;100.00;77060.47;4997187;28;20109;-70
2021/12/02 04:57:35;;;;;;;3.08;0.40;;;;;;;-142.75;100.00;77056.53;4999143;28;20488;-69
2021/12/02 05:00:00;;;;;;;4.35;0.50;;;;;;;-142.75;100.00;77058.50;4994856;28;20067;-70
2021/12/02 05:02:26;;;;;;;1.90;0.40;;;;;;;-142.75;100.00;77046.69;5005533;28;20407;-69
2021/12/02 05:04:51;;;;;;;2.55;0.45;;;;;;;-142.75;100.00;77066.38;5005429;28;20033;-70
2021/12/02 05:07:16;;;;;;;1.77;0.40;;;;;;;-142.75;100.00;77056.53;4993854;28;20469;-69
2021/12/02 05:09:41;;;;;;;1.08;0.32;;;;;;;-142.75;100.00;77074.25;4999084;28;20026;-68
2021/12/02 05:12:07;;;;;;;1.27;0.27;;;;;;;-142.75;100.00;77084.09;5005341;28;20078;-70
2021/12/02 05:14:33;;;;;;;2.40;0.40;;;;;;;-142.75;100.00;77090.00;5002584;28;20746;-69
2021/12/02 05:16:58;;;;;;;2.42;0.45;;;;;;;-142.75;100.00;77091.97;4994555;28;20365;-69
2021/12/02 05:19:23;;;;;;;3.10;0.38;;;;;;;-142.75;100.00;77078.19;4993658;28;20030;-68
2021/12/02 05:21:48;;;;;;;0.63;0.20;;;;;;;-142.75;100.00;77090.00;4994744;28;20036;-70
2021/12/02 05:24:14;;;;;;;1.73;0.50;;;;;;;-142.75;100.00;77090.00;5006443;28;20035;-70
2021/12/02 05:26:39;;;;;;;4.70;0.50;;;;;;;-142.75;100.00;77095.91;5006528;28;20499;-69
2021/12/02 05:29:05;;;;;;;3.47;0.55;;;;;;;-142.75;100.00;77099.84;5004692;28;20033;-70
2021/12/02 05:31:30;;;;;;;1.80;0.45;;;;;;;-142.75;100.00;77101.81;4986061;28;20369;-70
2021/12/02 05:33:55;;;;;;;2.50;0.50;;;;;;;-142.75;100.00;77086.06;4986679;28;20411;-69
2021/12/02 05:36:21;;;;;;;1.90;0.47;;;;;;;-142.75;100.00;77076.22;4987102;28;20042;-71
2021/12/02 05:38:46;;;;;;;0.38;0.20;;;;;;;-142.75;100.00;77062.44;5000111;28;20312;-69
2021/12/02 05:41:16;;;;;;;1.40;0.35;;;;;;;-142.75;100.00;77054.56;4994204;28;20053;-70
2021/12/02 05:43:42;;;;;;;4.60;0.60;;;;;;;-142.75;100.00;77062.44;4991100;28;20026;-70
2021/12/02 05:46:08;;;;;;;3.40;0.80;;;;;;;-142.75;100.00;77076.22;4997304;28;20034;-69
2021/12/02 05:48:33;;;;;;;2.85;0.60;;;;;;;-142.75;100.00;77070.31;4989526;28;20641;-69
2021/12/02 05:50:59;;;;;;;6.22;0.80;;;;;;;-142.75;100.00;77062.44;4990079;28;20030;-70
2021/12/02 05:53:24;;;;;;;6.57;1.05;;;;;;;-142.75;100.00;77074.25;4998916;28;20050;-70
2021/12/02 05:55:50;;;;;;;9.52;0.82;;;;;;;-142.75;100.00;77070.31;4999139;28;20444;-69
2021/12/02 05:58:15;;;;;;;9.32;1.70;;;;;;;-142.75;100.00;77070.31;5005446;28;20126;-69
2021/12/02 06:00:41;;;;;;;10.38;1.27;;;;;;;-142.75;100.00;77076.22;4983788;28;20029;-69
2021/12/02 06:03:06;;;;;;;6.22;0.90;;;;;;;-142.75;100.00;77062.44;5004796;28;20037;-69
2021/12/02 06:05:32;;;;;;;5.68;0.70;;;;;;;-142.75;100.00;77046.69;5000292;28;20054;-69
2021/12/02 06:07:59;;;;;;;1.23;0.50;;;;;;;-142.75;100.00;77046.69;4995253;28;20026;-70
2021/12/02 06:10:25;;;;;;;4.97;0.70;;;;;;;-142.75;100.00;77040.78;4992801;28;20491;-68
2021/12/02 06:12:51;;;;;;;8.03;1.57;;;;;;;-142.75;100.00;77044.72;5004952;28;20059;-69
2021/12/02 06:15:17;;;;;;;2.88;0.80;;;;;;;-142.75;100.00;77066.38;4991203;28;20027;-69
2021/12/02 06:17:43;;;;;;;4.32;0.93;;;;;;;-142.75;100.00;77070.31;4998327;28;20518;-68
2021/12/02 06:20:09;;;;;;;;;;;;;;;-142.75;100.00;77060.47;5000259;28;20038;-70
2021/12/02 06:22:34;;;;;;;4.27;0.80;;;;;;;-142.75;100.00;77070.31;4989370;28;19921;-69
2021/12/02 06:27:42;;;;;;;6.73;0.97;;;;;;;-142.75;100.00;77105.75;4999629;28;20026;-70
2021/12/02 06:30:08;;;;;;;7.90;0.97;;;;;;;-142.75;100.00;77090.00;5006967;28;20026;-70
2021/12/02 06:32:33;;;;;;;8.68;1.42;;;;;;;-142.75;100.00;77080.16;5007672;28;20499;-70
2021/12/02 06:34:58;;;;;;;10.80;1.83;;;;;;;-142.75;100.00;77076.22;4991382;28;20087;-70
2021/12/02 06:37:25;;;;;;;6.28;1.00;;;;;;;-142.75;100.00;77072.28;5008659;28;20078;-69
2021/12/02 06:39:50;;;;;;;;;;;;;;;-142.75;100.00;77103.78;5008870;28;20030;-69
2021/12/02 06:42:16;;;;;;;6.10;0.87;;;;;;;-142.75;100.00;77103.78;5008821;28;19928;-70
2021/12/02 06:44:42;;;;;;;2.72;0.68;;;;;;;-142.75;100.00;77090.00;5000074;28;20025;-68
2021/12/02 06:47:07;;;;;;;3.95;0.60;;;;;;;-142.75;100.00;77095.91;5002779;28;20487;-69
2021/12/02 06:49:33;;;;;;;2.00;0.47;;;;;;;-142.75;100.00;77105.75;5006642;28;20021;-70
2021/12/02 06:51:59;;;;;;;2.03;0.73;;;;;;;-142.75;100.00;77101.81;4988431;28;20369;-70
2021/12/02 06:54:25;;;;;;;;;;;;;;;-142.75;100.00;77109.69;4990224;28;20022;-69
2021/12/02 06:56:51;;;;;;;3.63;0.63;;;;;;;-142.75;100.00;77127.41;5005348;28;19936;-69
2021/12/02 06:59:16;;;;;;;3.40;0.70;;;;;;;-142.75;100.00;77137.25;4990756;28;20067;-69
2021/12/02 07:01:42;;;;;;;2.90;0.70;;;;;;;-142.75;100.00;77147.09;5007861;28;20633;-69
2021/12/02 07:04:08;;;;;;;5.47;0.60;;;;;;;-142.75;100.00;77149.06;5000412;28;20079;-70
2021/12/02 07:06:36;;;;;;;5.38;0.75;;;;;;;-142.75;100.00;77141.19;5001691;28;20439;-69
2021/12/02 07:09:01;;;;;;;5.13;0.80;;;;;;;-142.75;100.00;77178.59;5014896;23;20046;-65
2021/12/02 07:11:26;;;;;;;2.88;0.57;;;;;;;-142.75;100.00;77151.03;5006874;28;20026;-66
2021/12/02 07:13:57;;;;;;;6.30;0.98;;;;;;;-142.75;100.00;77131.34;4994451;28;20029;-66
2021/12/02 07:16:22;;;;;;;7.20;0.87;;;;;;;-142.75;100.00;77135.28;5006571;28;20018;-65
2021/12/02 07:18:54;;;;;;;5.00;1.02;;;;;;;-142.75;100.00;77129.38;5008419;28;20034;-65
2021/12/02 07:21:19;;;;;;;4.87;0.80;;;;;;;-142.75;100.00;77131.34;5007866;28;20148;-65
2021/12/02 07:23:44;;;;;;;4.17;0.80;;;;;;;-142.75;100.00;77133.31;5008266;28;20489;-65
2021/12/02 07:26:09;;;;;;;5.20;1.07;;;;;;;-142.75;100.00;77135.28;5007032;28;20280;-65
2021/12/02 07:28:36;;;;;;;8.40;1.10;;;;;;;-142.75;100.00;77143.16;5007965;28;20725;-65
2021/12/02 07:31:03;;;;;;;4.60;1.30;;;;;;;-142.75;100.00;77149.06;5007261;28;20379;-65
2021/12/02 07:33:29;;;;;;;7.17;1.10;;;;;;;-142.75;100.00;77153.00;5008061;28;20491;-65
2021/12/02 07:35:54;;;;;;;3.50;1.38;;;;;;;-142.75;100.00;77158.91;5007999;28;20025;-65
2021/12/02 07:38:21;;;;;;;2.45;0.68;;;;;;;-142.75;100.00;77141.19;5008140;28;20071;-65
2021/12/02 07:40:46;;;;;;;3.33;0.77;;;;;;;-142.75;100.00;77137.25;5007190;28;20079;-65
2021/12/02 07:43:11;;;;;;;7.18;1.15;;;;;;;-142.75;100.00;77137.25;5007899;28;20033;-64
2021/12/02 07:45:37;;;;;;;11.17;1.10;;;;;;;-142.75;100.00;77139.22;5007778;28;20064;-65
2021/12/02 07:48:04;;;;;;;5.85;0.80;;;;;;;-142.75;100.00;77153.00;5007783;28;20293;-65
2021/12/02 07:50:30;;;;;;;9.00;1.10;;;;;;;-142.75;100.00;77149.06;5006952;28;20026;-65
2021/12/02 07:52:58;;;;;;;;;;;;;;;-142.75;100.00;77154.97;5008250;28;20108;-65
2021/12/02 07:55:24;;;;;;;3.67;0.80;;;;;;;-142.75;100.00;77158.91;5007547;28;20000;-64
2021/12/02 07:57:50;;;;;;;4.10;0.75;;;;;;;-142.75;100.00;77180.56;5006582;28;20117;-64
2021/12/02 08:00:19;;;;;;;5.90;0.90;;;;;;;-142.75;100.00;77190.41;5006801;28;20498;-64
2021/12/02 08:02:46;;;;;;;3.93;0.67;;;;;;;-142.75;100.00;77186.47;5007540;28;20026;-65
2021/12/02 08:05:13;;;;;;;7.47;0.90;;;;;;;-142.75;100.00;77200.25;5005280;28;20080;-64
2021/12/02 08:07:39;;;;;;;5.40;0.80;;;;;;;-142.75;100.00;77223.88;5006453;28;20066;-64
2021/12/02 08:10:09;;;;;;;4.17;0.80;;;;;;;-142.75;100.00;77243.56;5005732;28;20444;-65
2021/12/02 08:12:35;;;;;;;4.33;0.73;;;;;;;-142.75;100.00;77251.44;5006517;28;20032;-64
2021/12/02 08:15:06;;;;;;;4.60;0.83;;;;;;;-142.75;100.00;77247.50;5006413;28;20061;-65
2021/12/02 08:17:32;;;;;;;1.40;0.40;;;;;;;-142.75;100.00;77259.31;5004454;28;20641;-64
2021/12/02 08:19:57;;;;;;;3.63;0.95;;;;;;;-142.75;100.00;77271.13;4990693;28;20052;-64
2021/12/02 08:22:23;;;;;;;6.55;0.70;;;;;;;-142.75;100.00;77280.97;4991583;28;20026;-65
2021/12/02 08:24:49;;;;;;;1.85;0.55;;;;;;;-142.75;100.00;77277.03;4987301;28;20034;-65
2021/12/02 08:27:14;;;;;;;;;;;;;;;-142.75;100.00;77294.75;4986978;28;20030;-65
2021/12/02 08:29:42;;;;;;;1.20;0.40;;;;;;;-142.75;100.00;77286.88;4986122;28;20397;-65
2021/12/02 08:32:07;;;;;;;2.10;0.40;;;;;;;-142.75;100.00;77284.91;4986688;28;20049;-65
2021/12/02 08:34:32;;;;;;;1.02;0.40;;;;;;;-142.75;100.00;77290.81;4986514;28;20603;-65
2021/12/02 08:36:58;;;;;;;1.13;0.60;;;;;;;-142.75;100.00;77286.88;4986679;28;20026;-64
2021/12/02 08:39:26;;;;;;;0.95;0.30;;;;;;;-142.75;100.00;77265.22;4986621;28;20743;-66
2021/12/02 08:41:54;;;;;;;1.60;0.53;;;;;;;-142.75;100.00;77229.78;4985461;28;20026;-65
2021/12/02 08:44:20;;;;;;;3.30;0.57;;;;;;;-142.75;100.00;77186.47;4987009;28;20023;-65
2021/12/02 08:46:47;;;;;;;2.47;1.00;;;;;;;-142.75;100.00;77145.13;4985941;28;20109;-65
2021/12/02 08:49:13;;;;;;;2.23;0.50;;;;;;;-142.75;100.00;77107.72;4985801;28;20035;-65
2021/12/02 08:51:38;;;;;;;2.10;0.60;;;;;;;-142.75;100.00;77058.50;4985861;28;20041;-65
2021/12/02 08:54:03;;;;;;;1.92;0.50;;;;;;;-142.75;100.00;76995.50;4986715;28;20816;-65
2021/12/02 08:56:29;;;;;;;3.92;0.70;;;;;;;-142.75;100.00;76987.63;4986416;28;20019;-65
2021/12/02 08:58:55;;;;;;;1.88;0.43;;;;;;;-142.75;100.00;77009.28;4986528;28;20050;-65
2021/12/02 09:01:20;;;;;;;3.17;0.90;;;;;;;-142.75;100.00;77028.97;4986078;28;20483;-65
2021/12/02 09:03:46;;;;;;;3.80;0.57;;;;;;;-142.75;100.00;77009.28;4985957;28;20499;-65
2021/12/02 09:06:12;;;;;;;2.47;0.65;;;;;;;-142.75;100.00;77007.31;4985250;28;20022;-64
2021/12/02 09:08:41;;;;;;;4.00;1.02;;;;;;;-142.75;100.00;76952.19;4986231;28;20023;-64
2021/12/02 09:11:07;;;;;;;4.50;0.67;;;;;;;-142.75;100.00;76926.59;4984245;28;20056;-64
2021/12/02 09:13:32;;;;;;;3.45;0.50;;;;;;;-142.75;98.30;76885.25;4986436;28;20501;-63
2021/12/02 09:15:58;;;;;;;6.28;1.27;;;;;;;-142.75;98.02;76889.19;4986357;28;20082;-65
2021/12/02 09:18:24;;;;;;;3.40;0.68;;;;;;;-142.75;96.39;76853.75;4985818;28;20131;-65
2021/12/02 09:20:50;;;;;;;5.90;0.63;;;;;;;-142.75;95.35;76812.41;4985565;28;20026;-66
2021/12/02 09:23:15;;;;;;;5.75;0.85;;;;;;;-142.75;92.43;76810.44;4986487;28;20480;-65
2021/12/02 09:25:41;;;;;;;6.32;0.90;;;;;;;-142.75;91.28;76782.91;4987443;28;20037;-65
2021/12/02 09:28:07;;;;;;;5.00;0.50;;;;;;;-142.75;90.27;76775.03;4986960;28;20026;-65
2021/12/02 09:30:33;;;;;;;4.50;0.80;;;;;;;-142.75;89.20;76751.41;4996825;28;20041;-66
2021/12/02 09:32:59;;;;;;;4.60;0.90;;;;;;;-142.75;88.36;76761.25;4986146;28;20118;-66
2021/12/02 09:35:25;;;;;;;3.95;0.95;;;;;;;-142.75;87.41;76717.94;4986214;28;20526;-65
2021/12/02 09:37:51;;;;;;;4.18;0.55;;;;;;;-142.75;87.31;76688.41;4986316;28;20022;-65
2021/12/02 09:40:17;;;;;;;2.13;0.57;;;;;;;-142.75;85.08;76651.00;4985612;28;20049;-65
2021/12/02 09:42:44;;;;;;;2.77;0.60;;;;;;;-142.75;84.87;76639.19;4986025;28;20034;-64
2021/12/02 09:45:09;;;;;;;3.33;0.77;;;;;;;-142.75;84.88;76649.03;4994195;28;20540;-65
2021/12/02 09:47:38;;;;;;;6.47;1.33;;;;;;;-142.75;83.75;76603.75;5004126;28;20026;-64
2021/12/02 09:50:12;;;;;;;3.75;0.90;;;;;;;-142.75;82.51;76580.13;5004453;28;20029;-66
2021/12/02 09:52:39;;;;;;;6.30;1.25;;;;;;;-142.75;82.02;76570.28;5006556;28;20046;-65
2021/12/02 09:55:16;;;;;;;5.57;0.93;;;;;;;-142.75;83.12;76534.84;5008542;28;20014;-66
2021/12/02 09:57:45;;;;;;;;;;;;;;;-142.75;79.42;76552.56;5009079;28;20034;-66
2021/12/02 10:00:17;;;;;;;4.90;0.88;;;;;;;-142.75;78.99;76609.66;5007960;28;19953;-66
2021/12/02 10:02:52;;;;;;;3.15;0.43;;;;;;;-142.75;79.68;76714.00;5008808;28;20034;-66
2021/12/02 10:05:38;;;;;;;0.55;0.20;;;;;;;-142.75;83.51;76739.59;5006938;28;20040;-65
2021/12/02 10:08:06;;;;;;;1.30;0.28;;;;;;;-142.75;86.96;76845.88;5008484;28;20101;-65
2021/12/02 10:10:37;;;;;;;3.93;0.50;;;;;;;-142.75;88.96;76901.00;5007742;28;20417;-65
2021/12/02 10:13:09;;;;;;;1.83;0.37;;;;;;;-142.75;91.65;76948.25;5008421;28;20050;-65
2021/12/02 10:15:37;;;;;;;3.03;0.40;;;;;;;-142.75;94.88;76964.00;5008336;28;20067;-65
2021/12/02 10:18:13;;;;;;;1.90;0.47;;;;;;;-142.75;97.87;76969.91;5008196;28;20052;-64
2021/12/02 10:20:45;;;;;;;1.90;0.20;;;;;;;-142.75;100.00;76967.94;5007673;28;20048;-65
2021/12/02 10:23:17;;;;;;;2.33;0.33;;;;;;;-142.75;100.00;76993.53;5007010;28;20036;-65
2021/12/02 10:25:46;;;;;;;3.23;0.60;;;;;;;-142.75;100.00;77013.22;5008292;28;20467;-65
2021/12/02 10:28:16;;;;;;;2.80;0.40;;;;;;;-142.75;100.00;77054.56;5008072;28;20025;-65
2021/12/02 10:30:43;;;;;;;3.77;0.53;;;;;;;-142.75;100.00;77095.91;5007445;28;20036;-65
2021/12/02 10:33:10;;;;;;;3.07;0.53;;;;;;;-142.75;100.00;77149.06;5007001;28;20040;-65
2021/12/02 10:35:41;;;;;;;2.47;0.40;;;;;;;-142.75;100.00;77176.63;5009008;28;20022;-65
2021/12/02 10:38:10;;;;;;;1.60;0.50;;;;;;;-142.75;100.00;77210.09;5008243;28;20033;-66
2021/12/02 10:40:36;;;;;;;6.47;0.60;;;;;;;-142.75;100.00;77223.88;5007241;28;20059;-65
2021/12/02 10:43:08;;;;;;;2.50;0.50;;;;;;;-142.75;100.00;77243.56;5008902;28;20021;-65
2021/12/02 10:45:34;;;;;;;4.67;0.67;;;;;;;-142.75;100.00;77259.31;5008790;28;20026;-65
2021/12/02 10:47:59;;;;;;;2.55;0.70;;;;;;;-142.75;100.00;77271.13;5008656;28;20431;-66
2021/12/02 10:50:26;;;;;;;4.20;0.80;;;;;;;-142.75;100.00;77288.84;5008026;28;20075;-65
2021/12/02 10:52:52;;;;;;;2.37;0.50;;;;;;;-142.75;100.00;77298.69;5008624;28;20068;-66
2021/12/02 10:55:22;;;;;;;4.67;1.17;;;;;;;-142.75;100.00;77322.31;5008997;28;20057;-66
2021/12/02 10:57:54;;;;;;;1.77;0.40;;;;;;;-142.75;100.00;77334.13;5008937;28;20034;-65
2021/12/02 11:00:24;;;;;;;5.17;0.93;;;;;;;-142.75;100.00;77373.50;5008097;28;20034;-66
2021/12/02 11:02:53;;;;;;;2.93;0.63;;;;;;;-142.75;100.00;77403.03;5008511;28;20025;-66
2021/12/02 11:05:26;;;;;;;1.47;0.40;;;;;;;-142.75;100.00;77416.81;5007626;28;20029;-65
2021/12/02 11:07:54;;;;;;;3.13;0.33;;;;;;;-142.75;100.00;77426.66;5008540;28;20109;-66
2021/12/02 11:10:20;;;;;;;2.70;0.70;;;;;;;-142.75;100.00;77426.66;5007935;28;20498;-65
2021/12/02 11:12:48;;;;;;;1.55;0.52;;;;;;;-142.75;100.00;77448.34;5008488;28;20479;-66
2021/12/02 11:15:21;;;;;;;1.57;0.33;;;;;;;-142.75;100.00;77432.56;5007174;28;20018;-66
2021/12/02 11:17:48;;;;;;;1.47;0.30;;;;;;;-142.75;100.00;77414.84;5008304;28;20026;-66
2021/12/02 11:20:22;;;;;;;1.40;0.30;;;;;;;-142.75;100.00;77397.13;5007473;28;20457;-66
2021/12/02 11:22:53;;;;;;;1.20;0.40;;;;;;;-142.75;100.00;77381.38;4987916;28;20125;-66
2021/12/02 11:25:18;;;;;;;1.30;0.50;;;;;;;-142.75;100.00;77351.84;4989035;28;20079;-66
2021/12/02 11:27:49;;;;;;;2.45;0.45;;;;;;;-142.75;100.00;77353.81;4988756;28;20022;-66
2021/12/02 11:30:17;;;;;;;1.60;0.47;;;;;;;-142.75;100.00;77340.03;4987807;28;20026;-66
2021/12/02 11:32:49;;;;;;;0.90;0.50;;;;;;;-142.75;100.00;77338.06;4987405;28;20034;-66